createdAt,value
2022-08-03T00:02:17.032Z,13.70
2022-08-03T00:04:44.113Z,9.15
2022-08-03T00:07:11.393Z,15.82
2022-08-03T00:09:38.227Z,11.55
2022-08-03T00:12:05.531Z,13.65
2022-08-03T00:14:32.365Z,14.07
2022-08-03T00:16:59.693Z,19.05
2022-08-03T00:19:26.569Z,12.52
2022-08-03T00:21:57.981Z,10.55
2022-08-03T00:24:27.520Z,12.52
2022-08-03T00:26:54.412Z,13.30
2022-08-03T00:29:25.978Z,13.68
2022-08-03T00:31:59.522Z,11.13
2022-08-03T00:34:29.897Z,12.20
2022-08-03T00:37:03.623Z,15.77
2022-08-03T00:39:30.443Z,11.00
2022-08-03T00:41:57.291Z,17.48
2022-08-03T00:44:24.182Z,12.10
2022-08-03T00:46:51.049Z,12.02
2022-08-03T00:49:18.007Z,13.48
2022-08-03T00:51:44.941Z,15.40
2022-08-03T00:54:11.884Z,14.15
2022-08-03T00:56:41.259Z,12.48
2022-08-03T00:59:29.319Z,13.48
2022-08-03T01:01:56.355Z,10.82
2022-08-03T01:04:28.189Z,11.82
2022-08-03T01:07:01.416Z,11.43
2022-08-03T01:09:36.169Z,14.43
2022-08-03T01:12:25.477Z,15.40
2022-08-03T01:14:56.131Z,11.95
2022-08-03T01:17:31.562Z,12.93
2022-08-03T01:20:06.975Z,13.40
2022-08-03T01:23:00.890Z,16.50
2022-08-03T01:25:48.863Z,10.65
2022-08-03T01:28:59.101Z,10.65
2022-08-03T01:33:02.302Z,11.43
2022-08-03T01:34:47.818Z,12.50
2022-08-03T01:37:17.899Z,12.60
2022-08-03T01:39:45.577Z,15.95
2022-08-03T01:42:15.231Z,13.10
2022-08-03T01:44:42.763Z,10.75
2022-08-03T01:47:09.927Z,12.80
2022-08-03T01:49:40.823Z,14.20
2022-08-03T01:52:07.841Z,12.20
2022-08-03T01:54:36.351Z,17.73
2022-08-03T01:57:05.790Z,15.40
2022-08-03T01:59:33.927Z,15.68
2022-08-03T02:02:28.311Z,12.68
2022-08-03T02:04:48.384Z,13.57
2022-08-03T02:07:16.304Z,10.07
2022-08-03T02:09:45.194Z,13.18
2022-08-03T02:12:12.471Z,13.90
2022-08-03T02:14:45.646Z,10.82
2022-08-03T02:17:12.941Z,18.27
2022-08-03T02:19:40.117Z,17.77
2022-08-03T02:22:10.337Z,13.18
2022-08-03T02:24:37.589Z,18.15
2022-08-03T02:27:10.708Z,13.77
2022-08-03T02:29:39.159Z,13.77
2022-08-03T02:32:11.566Z,20.20
2022-08-03T02:34:41.273Z,15.02
2022-08-03T02:37:10.832Z,14.73
2022-08-03T02:39:37.742Z,16.52
2022-08-03T02:42:05.645Z,16.23
2022-08-03T02:44:33.311Z,18.27
2022-08-03T02:47:05.535Z,14.23
2022-08-03T02:49:51.665Z,22.48
2022-08-03T02:52:23.527Z,14.20
2022-08-03T02:54:52.576Z,17.55
2022-08-03T02:57:21.969Z,15.70
2022-08-03T02:59:49.253Z,17.83
2022-08-03T03:02:16.778Z,16.08
2022-08-03T03:05:52.409Z,14.43
2022-08-03T03:07:35.368Z,17.48
2022-08-03T03:10:18.904Z,16.55
2022-08-03T03:12:47.750Z,16.70
2022-08-03T03:15:14.806Z,20.17
2022-08-03T03:17:41.670Z,15.15
2022-08-03T03:20:11.062Z,16.60
2022-08-03T03:22:38.323Z,16.73
2022-08-03T03:25:07.149Z,17.35
2022-08-03T03:27:36.134Z,17.65
2022-08-03T03:30:06.583Z,19.50
2022-08-03T03:32:33.466Z,20.30
2022-08-03T03:35:00.293Z,18.10
2022-08-03T03:37:27.651Z,15.07
2022-08-03T03:39:55.278Z,15.43
2022-08-03T03:42:25.274Z,17.52
2022-08-03T03:44:52.585Z,15.05
2022-08-03T03:47:32.363Z,17.00
2022-08-03T03:49:59.719Z,22.65
2022-08-03T03:52:28.765Z,16.10
2022-08-03T03:55:00.661Z,15.00
2022-08-03T03:57:30.542Z,16.55
2022-08-03T03:59:57.875Z,15.88
2022-08-03T04:02:24.757Z,31.85
2022-08-03T04:05:09.948Z,42.10
2022-08-03T04:08:20.857Z,32.85
2022-08-03T04:11:03.209Z,18.67
2022-08-03T04:13:37.784Z,17.67
2022-08-03T04:16:07.301Z,19.83
2022-08-03T04:18:34.945Z,17.27
2022-08-03T04:21:06.244Z,18.20
2022-08-03T04:23:34.959Z,18.52
2022-08-03T04:26:03.351Z,20.10
2022-08-03T04:28:32.006Z,18.52
2022-08-03T04:31:04.415Z,18.08
2022-08-03T04:33:37.724Z,18.17
2022-08-03T04:36:07.867Z,19.77
2022-08-03T04:38:40.215Z,17.70
2022-08-03T04:41:07.669Z,21.85
2022-08-03T04:43:34.937Z,17.65
2022-08-03T04:46:04.600Z,20.95
2022-08-03T04:48:31.836Z,17.20
2022-08-03T04:51:00.981Z,21.45
2022-08-03T04:53:29.943Z,20.23
2022-08-03T04:55:57.221Z,18.63
2022-08-03T04:58:30.925Z,20.88
2022-08-03T05:00:59.988Z,25.27
2022-08-03T05:03:26.883Z,19.23
2022-08-03T05:06:01.709Z,19.98
2022-08-03T05:08:36.924Z,16.90
2022-08-03T05:11:13.408Z,19.73
2022-08-03T05:13:42.431Z,21.42
2022-08-03T05:16:09.402Z,20.88
2022-08-03T05:18:36.303Z,20.50
2022-08-03T05:21:03.430Z,19.77
2022-08-03T05:23:30.382Z,19.88
2022-08-03T05:25:57.307Z,22.48
2022-08-03T05:28:26.379Z,17.20
2022-08-03T05:30:55.819Z,22.60
2022-08-03T05:33:22.705Z,22.48
2022-08-03T05:36:02.172Z,25.70
2022-08-03T05:38:34.350Z,21.00
2022-08-03T05:41:20.963Z,20.98
2022-08-03T05:43:56.294Z,25.23
2022-08-03T05:46:25.668Z,22.52
2022-08-03T05:48:52.611Z,20.58
2022-08-03T05:51:19.525Z,23.23
2022-08-03T05:53:46.799Z,20.48
2022-08-03T05:56:16.211Z,21.50
2022-08-03T05:58:44.855Z,23.65
2022-08-03T06:01:14.734Z,21.85
2022-08-03T06:03:41.650Z,20.40
2022-08-03T06:06:08.901Z,26.88
2022-08-03T06:08:38.370Z,26.98
2022-08-03T06:11:07.772Z,28.90
2022-08-03T06:13:37.214Z,22.67
2022-08-03T06:16:04.554Z,30.10
2022-08-03T06:18:31.908Z,28.23
2022-08-03T06:21:11.062Z,24.95
2022-08-03T06:23:54.579Z,20.98
2022-08-03T06:26:25.463Z,30.30
2022-08-03T06:28:54.562Z,22.27
2022-08-03T06:31:33.090Z,21.58
2022-08-03T06:34:34.096Z,24.40
2022-08-03T06:36:52.551Z,26.35
2022-08-03T06:39:20.540Z,22.48
2022-08-03T06:41:50.187Z,23.02
2022-08-03T06:44:22.795Z,20.75
2022-08-03T06:46:51.267Z,24.35
2022-08-03T06:49:19.021Z,22.63
2022-08-03T06:52:04.934Z,24.85
2022-08-03T06:54:38.052Z,24.88
2022-08-03T06:57:05.669Z,28.30
2022-08-03T07:00:09.905Z,23.42
2022-08-03T07:02:20.652Z,24.40
2022-08-03T07:04:51.274Z,22.80
2022-08-03T07:07:21.061Z,27.55
2022-08-03T07:09:56.824Z,26.83
2022-08-03T07:12:26.188Z,22.65
2022-08-03T07:15:00.269Z,27.58
2022-08-03T07:17:28.325Z,20.92
2022-08-03T07:19:55.605Z,24.52
2022-08-03T07:22:24.536Z,25.13
2022-08-03T07:24:51.721Z,24.23
2022-08-03T07:27:21.261Z,24.40
2022-08-03T07:29:48.423Z,23.90
2022-08-03T07:32:18.279Z,18.50
2022-08-03T07:34:45.620Z,21.13
2022-08-03T07:37:12.800Z,19.60
2022-08-03T07:39:41.946Z,17.45
2022-08-03T07:42:08.766Z,20.48
2022-08-03T07:44:35.934Z,19.77
2022-08-03T07:47:03.489Z,16.00
2022-08-03T07:49:30.558Z,23.05
2022-08-03T07:52:16.551Z,21.88
2022-08-03T07:54:43.939Z,15.60
2022-08-03T07:57:10.723Z,13.23
2022-08-03T07:59:56.529Z,15.15
2022-08-03T08:02:26.934Z,14.90
2022-08-03T08:04:53.671Z,14.90
2022-08-03T08:07:20.838Z,17.73
2022-08-03T08:09:49.833Z,14.25
2022-08-03T08:12:16.900Z,14.57
2022-08-03T08:14:46.836Z,14.82
2022-08-03T08:17:13.997Z,16.67
2022-08-03T08:19:43.830Z,14.20
2022-08-03T08:22:30.603Z,13.70
2022-08-03T08:24:59.563Z,17.63
2022-08-03T08:27:28.322Z,9.05
2022-08-03T08:30:19.346Z,11.23
2022-08-03T08:32:46.810Z,9.32
2022-08-03T08:35:13.626Z,7.30
2022-08-03T08:37:40.716Z,10.20
2022-08-03T08:40:08.686Z,10.82
2022-08-03T08:42:37.514Z,13.68
2022-08-03T08:45:08.881Z,8.02
2022-08-03T08:47:50.994Z,8.05
2022-08-03T08:50:27.668Z,10.35
2022-08-03T08:52:56.836Z,9.43
2022-08-03T08:55:24.101Z,7.65
2022-08-03T08:58:01.876Z,9.48
2022-08-03T09:00:30.866Z,8.07
2022-08-03T09:02:58.065Z,9.30
2022-08-03T09:05:53.702Z,10.25
2022-08-03T09:08:13.326Z,7.90
2022-08-03T09:10:40.490Z,14.75
2022-08-03T09:13:07.629Z,9.98
2022-08-03T09:15:34.523Z,6.88
2022-08-03T09:18:02.663Z,8.32
2022-08-03T09:20:31.061Z,10.40
2022-08-03T09:23:19.089Z,7.78
2022-08-03T09:25:58.051Z,9.20
2022-08-03T09:28:52.677Z,8.57
2022-08-03T09:31:14.259Z,6.97
2022-08-03T09:33:47.949Z,8.05
2022-08-03T09:36:43.863Z,11.38
2022-08-03T09:39:14.101Z,8.63
2022-08-03T09:41:44.451Z,11.73
2022-08-03T09:44:25.315Z,12.38
2022-08-03T10:04:02.811Z,8.95
2022-08-03T10:06:31.746Z,4.78
2022-08-03T10:09:09.438Z,4.35
2022-08-03T10:11:42.676Z,4.72
2022-08-03T10:14:19.319Z,6.15
2022-08-03T10:16:46.989Z,9.63
2022-08-03T10:19:16.438Z,6.28
2022-08-03T10:21:52.945Z,12.55
2022-08-03T10:24:24.757Z,4.75
2022-08-03T10:26:59.291Z,10.45
2022-08-03T10:29:26.377Z,6.22
2022-08-03T10:31:57.992Z,5.38
2022-08-03T10:34:27.002Z,8.48
2022-08-03T10:36:57.107Z,11.15
2022-08-03T10:39:28.795Z,8.90
2022-08-03T10:41:58.778Z,5.93
2022-08-03T10:44:27.436Z,7.28
2022-08-03T10:46:54.612Z,5.63
2022-08-03T10:49:33.746Z,7.22
2022-08-03T10:52:02.737Z,10.43
2022-08-03T10:55:03.556Z,5.45
2022-08-03T10:57:58.350Z,6.35
2022-08-03T11:00:27.072Z,4.78
2022-08-03T11:03:06.962Z,6.25
2022-08-03T11:05:37.264Z,9.88
2022-08-03T11:08:19.829Z,6.40
2022-08-03T11:10:49.622Z,8.02
2022-08-03T11:13:22.346Z,7.97
2022-08-03T11:15:50.306Z,10.30
2022-08-03T11:18:17.054Z,5.50
2022-08-03T11:20:54.601Z,6.13
2022-08-03T11:24:04.463Z,15.73
2022-08-03T11:26:27.986Z,11.48
2022-08-03T11:29:24.279Z,3.85
2022-08-03T11:31:51.930Z,5.07
2022-08-03T11:34:18.791Z,5.20
2022-08-03T11:37:23.541Z,6.20
2022-08-03T11:39:53.031Z,7.13
2022-08-03T11:42:25.635Z,8.55
2022-08-03T11:44:52.890Z,7.18
2022-08-03T11:47:24.085Z,6.50
2022-08-03T11:49:51.751Z,6.20
2022-08-03T11:52:19.492Z,9.00
2022-08-03T11:54:57.047Z,6.50
2022-08-03T11:59:17.367Z,8.88
2022-08-03T12:00:27.071Z,8.82
2022-08-03T12:03:09.712Z,5.85
2022-08-03T12:05:52.007Z,4.85
2022-08-03T12:08:28.487Z,6.25
2022-08-03T12:10:56.252Z,7.43
2022-08-03T12:14:44.208Z,7.68
2022-08-03T12:16:23.205Z,6.55
2022-08-03T12:19:02.863Z,4.70
2022-08-03T12:21:31.940Z,5.00
2022-08-03T12:24:02.267Z,4.63
2022-08-03T12:26:29.732Z,5.20
2022-08-03T12:28:56.606Z,7.05
2022-08-03T12:31:23.359Z,6.07
2022-08-03T12:34:03.593Z,3.92
2022-08-03T12:36:31.837Z,5.22
2022-08-03T12:39:00.314Z,5.03
2022-08-03T12:41:35.480Z,4.30
2022-08-03T12:44:06.359Z,6.47
2022-08-03T12:46:45.334Z,6.22
2022-08-03T12:49:15.623Z,5.70
2022-08-03T12:51:44.826Z,7.05
2022-08-03T12:54:24.791Z,6.45
2022-08-03T12:57:15.559Z,5.70
2022-08-03T12:59:52.914Z,6.88
2022-08-03T13:02:27.820Z,9.75
2022-08-03T13:04:54.946Z,9.75
2022-08-03T13:07:24.047Z,6.05
2022-08-03T13:09:55.340Z,5.72
2022-08-03T13:12:26.532Z,8.40
2022-08-03T13:14:59.887Z,11.48
2022-08-03T13:17:29.144Z,8.30
2022-08-03T13:19:56.357Z,27.45
2022-08-03T13:22:24.611Z,4.72
2022-08-03T13:24:52.526Z,5.78
2022-08-03T13:28:02.665Z,6.28
2022-08-03T13:30:09.326Z,6.75
2022-08-03T13:32:36.095Z,4.40
2022-08-03T13:35:05.544Z,6.15
2022-08-03T13:37:32.534Z,5.30
2022-08-03T13:40:02.366Z,5.85
2022-08-03T13:42:33.082Z,9.35
2022-08-03T13:45:02.476Z,6.85
2022-08-03T13:47:29.266Z,7.93
2022-08-03T13:50:01.089Z,4.38
2022-08-03T13:52:33.094Z,6.10
2022-08-03T13:55:00.499Z,5.07
2022-08-03T13:58:02.670Z,7.53
2022-08-03T14:00:16.306Z,6.63
2022-08-03T14:03:03.887Z,5.13
2022-08-03T14:05:35.767Z,9.00
2022-08-03T14:08:04.580Z,5.43
2022-08-03T14:10:38.222Z,5.00
2022-08-03T14:13:10.054Z,6.00
2022-08-03T14:15:39.398Z,7.22
2022-08-03T14:18:15.633Z,7.18
2022-08-03T14:20:47.692Z,8.38
2022-08-03T14:23:17.169Z,7.03
2022-08-03T14:25:51.799Z,5.10
2022-08-03T14:28:20.864Z,4.40
2022-08-03T14:30:48.608Z,7.93
2022-08-03T14:33:15.570Z,6.00
2022-08-03T14:35:47.092Z,6.55
2022-08-03T14:38:14.090Z,3.83
2022-08-03T14:40:41.101Z,4.80
2022-08-03T14:43:11.060Z,4.38
2022-08-03T14:45:40.591Z,6.60
2022-08-03T14:50:34.340Z,4.93
2022-08-03T14:50:58.908Z,4.82
2022-08-03T14:53:28.988Z,5.25
2022-08-03T14:55:58.463Z,5.97
2022-08-03T14:58:26.130Z,8.10
2022-08-03T15:00:53.666Z,6.07
2022-08-03T15:03:23.603Z,7.50
2022-08-03T15:05:55.066Z,6.28
2022-08-03T15:08:22.434Z,4.93
2022-08-03T15:10:49.674Z,6.05
2022-08-03T15:13:17.936Z,4.70
2022-08-03T15:15:47.908Z,8.65
2022-08-03T15:18:14.883Z,12.82
2022-08-03T15:20:45.989Z,7.18
2022-08-03T15:23:16.762Z,5.10
2022-08-03T15:26:29.553Z,5.50
2022-08-03T15:28:31.490Z,4.78
2022-08-03T15:31:00.920Z,4.45
2022-08-03T15:33:28.288Z,6.25
2022-08-03T15:35:58.205Z,5.57
2022-08-03T15:38:25.952Z,5.13
2022-08-03T15:40:54.742Z,5.15
2022-08-03T15:43:22.495Z,4.18
2022-08-03T15:45:54.656Z,7.85
2022-08-03T15:48:36.287Z,4.95
2022-08-03T15:51:05.468Z,9.20
2022-08-03T15:53:33.428Z,9.55
2022-08-03T15:56:00.851Z,6.05
2022-08-03T15:59:04.155Z,10.10
2022-08-03T16:01:21.432Z,5.78
2022-08-03T16:03:48.398Z,7.75
2022-08-03T16:06:15.210Z,6.20
2022-08-03T16:08:42.202Z,10.32
2022-08-03T16:11:09.158Z,7.07
2022-08-03T16:14:13.655Z,6.72
2022-08-03T16:16:23.294Z,5.20
2022-08-03T16:18:52.662Z,5.55
2022-08-03T16:21:21.707Z,6.40
2022-08-03T16:23:48.823Z,5.25
2022-08-03T16:26:15.901Z,5.65
2022-08-03T16:28:45.561Z,5.18
2022-08-03T16:31:12.522Z,6.60
2022-08-03T16:33:47.125Z,6.35
2022-08-03T16:36:14.008Z,6.25
2022-08-03T16:38:42.989Z,5.05
2022-08-03T16:41:15.594Z,8.25
2022-08-03T16:43:44.946Z,6.15
2022-08-03T16:46:11.864Z,9.77
2022-08-03T16:48:40.374Z,8.43
2022-08-03T16:51:08.328Z,5.50
2022-08-03T16:54:07.469Z,5.63
2022-08-03T16:56:22.364Z,5.80
2022-08-03T16:58:50.372Z,5.07
2022-08-03T17:01:24.358Z,8.73
2022-08-03T17:04:04.517Z,7.28
2022-08-03T17:06:45.148Z,8.43
2022-08-03T17:09:14.310Z,11.07
2022-08-03T17:11:43.844Z,5.47
2022-08-03T17:14:17.410Z,9.40
2022-08-03T17:16:52.854Z,5.60
2022-08-03T17:19:24.540Z,4.22
2022-08-03T17:22:21.165Z,6.43
2022-08-03T17:24:55.043Z,10.68
2022-08-03T17:28:43.101Z,7.97
2022-08-03T17:30:25.297Z,6.78
2022-08-03T17:32:57.738Z,5.65
2022-08-03T17:35:36.872Z,5.25
2022-08-03T17:38:08.890Z,6.28
2022-08-03T17:40:50.211Z,5.63
2022-08-03T17:44:13.313Z,7.10
2022-08-03T17:46:07.157Z,5.63
2022-08-03T17:48:41.511Z,5.78
2022-08-03T17:51:31.276Z,8.77
2022-08-03T17:58:02.406Z,6.85
2022-08-03T18:00:48.295Z,8.10
2022-08-03T18:03:25.075Z,9.65
2022-08-03T18:06:11.371Z,7.78
2022-08-03T18:08:43.505Z,7.72
2022-08-03T18:11:14.531Z,5.88
2022-08-03T18:13:58.148Z,6.18
2022-08-03T18:16:33.463Z,9.48
2022-08-03T18:19:01.458Z,11.43
2022-08-03T18:22:03.515Z,7.07
2022-08-03T18:24:26.259Z,8.77
2022-08-03T18:26:56.021Z,13.70
2022-08-03T18:29:24.095Z,9.02
2022-08-03T18:32:03.479Z,9.68
2022-08-03T18:34:36.288Z,11.60
2022-08-03T18:37:08.584Z,10.52
2022-08-03T18:39:49.597Z,13.15
2022-08-03T18:42:19.776Z,10.70
2022-08-03T18:45:10.599Z,10.30
2022-08-03T18:48:09.075Z,8.23
2022-08-03T18:50:49.557Z,9.80
2022-08-03T18:54:03.470Z,7.40
2022-08-03T18:56:42.690Z,9.60
2022-08-03T18:59:16.579Z,9.25
2022-08-03T19:02:04.111Z,11.43
2022-08-03T19:04:52.123Z,14.13
2022-08-03T19:07:23.643Z,9.93
2022-08-03T19:09:55.679Z,9.88
2022-08-03T19:12:42.659Z,9.55
2022-08-03T19:15:13.402Z,13.73
2022-08-03T19:17:53.233Z,8.93
2022-08-03T19:23:41.730Z,10.15
2022-08-03T19:29:59.559Z,9.70
2022-08-03T19:32:21.448Z,9.20
2022-08-03T19:34:48.479Z,13.93
2022-08-03T19:46:04.772Z,11.07
2022-08-03T19:48:30.717Z,9.93
2022-08-03T19:50:59.975Z,11.18
2022-08-03T19:53:34.889Z,10.85
2022-08-03T19:56:05.330Z,11.73
2022-08-03T19:58:33.568Z,11.27
2022-08-03T20:01:00.730Z,9.30
2022-08-03T20:03:50.300Z,13.35
2022-08-03T20:06:17.670Z,10.30
2022-08-03T20:08:44.607Z,11.98
2022-08-03T20:11:14.483Z,10.00
2022-08-03T20:13:41.421Z,11.57
2022-08-03T20:16:09.911Z,11.20
2022-08-03T20:18:39.542Z,14.25
2022-08-03T20:21:15.100Z,14.77
2022-08-03T20:24:02.829Z,9.60
2022-08-03T20:26:30.374Z,12.75
2022-08-03T20:29:09.353Z,9.65
2022-08-03T20:31:37.720Z,10.48
2022-08-03T20:34:05.485Z,10.55
2022-08-03T20:36:32.336Z,10.73
2022-08-03T20:39:02.143Z,8.68
2022-08-03T20:41:37.328Z,11.57
2022-08-03T20:44:05.398Z,12.80
2022-08-03T20:46:51.697Z,11.20
2022-08-03T20:49:23.055Z,11.10
2022-08-03T20:51:53.643Z,11.32
2022-08-03T20:54:30.796Z,11.70
2022-08-03T20:57:04.362Z,12.80
2022-08-03T20:59:50.771Z,12.52
2022-08-03T21:02:29.454Z,14.35
2022-08-03T21:05:02.842Z,14.82
2022-08-03T21:08:03.779Z,13.45
2022-08-03T21:10:29.780Z,13.38
2022-08-03T21:13:15.309Z,11.52
2022-08-03T21:16:12.867Z,10.35
2022-08-03T21:18:29.671Z,10.98
2022-08-03T21:20:58.575Z,7.72
2022-08-03T21:23:40.296Z,12.90
2022-08-03T21:26:12.867Z,7.57
2022-08-03T21:28:42.321Z,11.55
2022-08-03T21:31:09.608Z,8.68
2022-08-03T21:33:39.079Z,8.13
2022-08-03T21:36:10.980Z,10.43
2022-08-03T21:38:37.903Z,7.93
2022-08-03T21:41:04.828Z,6.35
2022-08-03T21:43:31.720Z,7.38
2022-08-03T21:46:05.049Z,8.38
2022-08-03T21:48:36.577Z,8.73
2022-08-03T21:51:03.979Z,5.32
2022-08-03T21:54:04.030Z,7.38
2022-08-03T21:56:22.834Z,7.82
2022-08-03T21:58:51.343Z,5.93
2022-08-03T22:01:20.132Z,6.40
2022-08-03T22:03:51.101Z,5.28
2022-08-03T22:06:21.418Z,7.85
2022-08-03T22:08:50.491Z,5.35
2022-08-03T22:11:17.403Z,7.78
2022-08-03T22:13:46.459Z,9.35
2022-08-03T22:16:15.914Z,4.43
2022-08-03T22:18:46.338Z,4.80
2022-08-03T22:21:15.246Z,9.10
2022-08-03T22:23:44.193Z,7.43
2022-08-03T22:26:16.691Z,6.90
2022-08-03T22:28:59.688Z,8.85
2022-08-03T22:31:56.911Z,12.70
2022-08-03T22:34:13.451Z,7.30
2022-08-03T22:36:42.405Z,8.52
2022-08-03T22:39:12.730Z,8.27
2022-08-03T22:41:52.643Z,8.90
2022-08-03T22:44:22.140Z,10.48
2022-08-03T22:46:49.085Z,10.13
2022-08-03T22:49:15.965Z,10.55
2022-08-03T22:51:42.838Z,9.95
2022-08-03T22:54:15.379Z,13.90
2022-08-03T22:56:44.351Z,10.93
2022-08-03T22:59:40.907Z,13.38
2022-08-03T23:02:15.110Z,14.05
2022-08-03T23:04:52.471Z,12.63
2022-08-03T23:07:33.772Z,9.80
2022-08-03T23:10:06.852Z,11.05
2022-08-03T23:12:35.477Z,10.50
2022-08-03T23:15:03.947Z,11.65
2022-08-03T23:17:33.911Z,12.75
2022-08-03T23:20:06.390Z,9.02
2022-08-03T23:22:42.881Z,11.15
2022-08-03T23:25:10.183Z,13.88
2022-08-03T23:27:39.735Z,12.07
2022-08-03T23:30:07.135Z,9.27
2022-08-03T23:32:34.001Z,9.40
2022-08-03T23:35:20.799Z,9.30
2022-08-03T23:38:10.827Z,7.32
2022-08-03T23:40:36.323Z,9.00
2022-08-03T23:43:03.261Z,7.40
2022-08-03T23:45:30.154Z,7.70
2022-08-03T23:47:59.202Z,10.98
2022-08-03T23:50:26.214Z,8.00
2022-08-03T23:53:12.396Z,11.32
2022-08-03T23:56:04.410Z,8.18
2022-08-03T23:58:40.335Z,7.25
